sensor_id;sensor_type;location;lat;lon;timestamp;temperature;humidity
18002;DHT22;9126;48.160;17.130;2022-11-04T00:02:02;12.90;95.80
18002;DHT22;9126;48.160;17.130;2022-11-04T00:04:30;12.80;95.80
18002;DHT22;9126;48.160;17.130;2022-11-04T00:06:58;12.80;96.20
18002;DHT22;9126;48.160;17.130;2022-11-04T00:09:27;12.90;96.00
18002;DHT22;9126;48.160;17.130;2022-11-04T00:11:54;12.80;96.00
18002;DHT22;9126;48.160;17.130;2022-11-04T00:14:39;12.70;96.10
18002;DHT22;9126;48.160;17.130;2022-11-04T00:17:09;12.70;96.20
18002;DHT22;9126;48.160;17.130;2022-11-04T00:19:47;12.60;96.30
18002;DHT22;9126;48.160;17.130;2022-11-04T00:22:33;12.70;96.50
18002;DHT22;9126;48.160;17.130;2022-11-04T00:25:14;12.70;96.30
18002;DHT22;9126;48.160;17.130;2022-11-04T00:28:04;12.60;96.60
18002;DHT22;9126;48.160;17.130;2022-11-04T00:30:52;12.80;96.60
18002;DHT22;9126;48.160;17.130;2022-11-04T00:33:19;12.90;96.40
18002;DHT22;9126;48.160;17.130;2022-11-04T00:35:53;12.70;95.90
18002;DHT22;9126;48.160;17.130;2022-11-04T00:38:22;12.60;96.00
18002;DHT22;9126;48.160;17.130;2022-11-04T00:40:50;12.30;96.30
18002;DHT22;9126;48.160;17.130;2022-11-04T00:43:17;12.40;96.70
18002;DHT22;9126;48.160;17.130;2022-11-04T00:45:44;12.50;96.80
18002;DHT22;9126;48.160;17.130;2022-11-04T00:48:11;12.60;96.60
18002;DHT22;9126;48.160;17.130;2022-11-04T00:50:38;12.70;96.30
18002;DHT22;9126;48.160;17.130;2022-11-04T00:53:05;12.70;96.20
18002;DHT22;9126;48.160;17.130;2022-11-04T00:55:33;12.80;95.80
18002;DHT22;9126;48.160;17.130;2022-11-04T00:58:00;12.60;95.70
18002;DHT22;9126;48.160;17.130;2022-11-04T01:00:27;12.40;95.80
18002;DHT22;9126;48.160;17.130;2022-11-04T01:02:55;12.30;95.80
18002;DHT22;9126;48.160;17.130;2022-11-04T01:05:22;12.20;96.00
18002;DHT22;9126;48.160;17.130;2022-11-04T01:07:49;12.00;96.20
18002;DHT22;9126;48.160;17.130;2022-11-04T01:10:16;12.00;96.60
18002;DHT22;9126;48.160;17.130;2022-11-04T01:12:45;12.00;96.70
18002;DHT22;9126;48.160;17.130;2022-11-04T01:15:11;12.10;96.80
18002;DHT22;9126;48.160;17.130;2022-11-04T01:17:38;12.20;96.50
18002;DHT22;9126;48.160;17.130;2022-11-04T01:20:06;12.30;96.40
18002;DHT22;9126;48.160;17.130;2022-11-04T01:22:33;12.30;96.10
18002;DHT22;9126;48.160;17.130;2022-11-04T01:25:00;12.20;96.20
18002;DHT22;9126;48.160;17.130;2022-11-04T01:27:27;12.20;96.50
18002;DHT22;9126;48.160;17.130;2022-11-04T01:29:55;12.40;96.30
18002;DHT22;9126;48.160;17.130;2022-11-04T01:32:22;12.30;95.80
18002;DHT22;9126;48.160;17.130;2022-11-04T01:34:49;12.30;95.90
18002;DHT22;9126;48.160;17.130;2022-11-04T01:37:16;12.20;95.80
18002;DHT22;9126;48.160;17.130;2022-11-04T01:39:43;12.10;96.10
18002;DHT22;9126;48.160;17.130;2022-11-04T01:42:12;12.20;96.20
18002;DHT22;9126;48.160;17.130;2022-11-04T01:44:49;12.20;96.20
18002;DHT22;9126;48.160;17.130;2022-11-04T01:47:20;12.30;96.00
18002;DHT22;9126;48.160;17.130;2022-11-04T01:49:50;12.30;95.90
18002;DHT22;9126;48.160;17.130;2022-11-04T01:52:23;12.20;95.90
18002;DHT22;9126;48.160;17.130;2022-11-04T01:54:54;12.30;96.00
18002;DHT22;9126;48.160;17.130;2022-11-04T01:57:27;12.30;95.80
18002;DHT22;9126;48.160;17.130;2022-11-04T01:59:57;12.30;95.70
18002;DHT22;9126;48.160;17.130;2022-11-04T02:02:27;12.30;95.80
18002;DHT22;9126;48.160;17.130;2022-11-04T02:04:55;12.30;95.80
18002;DHT22;9126;48.160;17.130;2022-11-04T02:07:22;12.40;95.80
18002;DHT22;9126;48.160;17.130;2022-11-04T02:09:50;12.40;95.50
18002;DHT22;9126;48.160;17.130;2022-11-04T02:12:17;12.30;95.50
18002;DHT22;9126;48.160;17.130;2022-11-04T02:15:01;12.20;95.50
18002;DHT22;9126;48.160;17.130;2022-11-04T02:17:39;12.10;95.50
18002;DHT22;9126;48.160;17.130;2022-11-04T02:20:27;12.00;95.80
18002;DHT22;9126;48.160;17.130;2022-11-04T02:23:24;12.10;96.00
18002;DHT22;9126;48.160;17.130;2022-11-04T02:32:00;11.90;96.30
18002;DHT22;9126;48.160;17.130;2022-11-04T02:34:36;11.80;96.30
18002;DHT22;9126;48.160;17.130;2022-11-04T02:37:12;11.90;96.50
18002;DHT22;9126;48.160;17.130;2022-11-04T02:39:50;12.00;96.30
18002;DHT22;9126;48.160;17.130;2022-11-04T02:42:25;12.00;96.30
18002;DHT22;9126;48.160;17.130;2022-11-04T02:45:03;12.20;96.40
18002;DHT22;9126;48.160;17.130;2022-11-04T02:47:36;12.20;96.00
18002;DHT22;9126;48.160;17.130;2022-11-04T02:50:08;12.30;95.90
18002;DHT22;9126;48.160;17.130;2022-11-04T02:52:41;12.40;95.70
18002;DHT22;9126;48.160;17.130;2022-11-04T02:55:13;12.30;95.40
18002;DHT22;9126;48.160;17.130;2022-11-04T02:57:44;12.20;95.40
18002;DHT22;9126;48.160;17.130;2022-11-04T03:00:14;12.10;95.60
18002;DHT22;9126;48.160;17.130;2022-11-04T03:02:51;12.00;95.50
18002;DHT22;9126;48.160;17.130;2022-11-04T03:05:27;11.90;95.80
18002;DHT22;9126;48.160;17.130;2022-11-04T03:07:57;12.00;96.00
18002;DHT22;9126;48.160;17.130;2022-11-04T03:10:30;12.10;95.90
18002;DHT22;9126;48.160;17.130;2022-11-04T03:13:03;12.20;95.90
18002;DHT22;9126;48.160;17.130;2022-11-04T03:15:33;12.20;96.00
18002;DHT22;9126;48.160;17.130;2022-11-04T03:18:11;12.30;95.50
18002;DHT22;9126;48.160;17.130;2022-11-04T03:20:42;12.40;95.30
18002;DHT22;9126;48.160;17.130;2022-11-04T03:23:12;12.30;95.10
18002;DHT22;9126;48.160;17.130;2022-11-04T03:25:42;12.30;95.20
18002;DHT22;9126;48.160;17.130;2022-11-04T03:28:21;12.10;95.10
18002;DHT22;9126;48.160;17.130;2022-11-04T03:30:54;12.10;95.40
18002;DHT22;9126;48.160;17.130;2022-11-04T03:33:26;12.10;95.40
18002;DHT22;9126;48.160;17.130;2022-11-04T03:35:54;12.20;95.60
18002;DHT22;9126;48.160;17.130;2022-11-04T03:38:21;12.20;95.40
18002;DHT22;9126;48.160;17.130;2022-11-04T03:40:49;12.20;95.50
18002;DHT22;9126;48.160;17.130;2022-11-04T03:43:19;12.20;95.50
18002;DHT22;9126;48.160;17.130;2022-11-04T03:45:48;12.40;95.40
18002;DHT22;9126;48.160;17.130;2022-11-04T03:48:16;12.30;95.30
18002;DHT22;9126;48.160;17.130;2022-11-04T03:50:45;12.30;95.30
18002;DHT22;9126;48.160;17.130;2022-11-04T03:53:14;12.30;95.20
18002;DHT22;9126;48.160;17.130;2022-11-04T03:55:50;12.10;95.10
18002;DHT22;9126;48.160;17.130;2022-11-04T03:58:28;12.00;95.50
18002;DHT22;9126;48.160;17.130;2022-11-04T04:01:04;12.10;95.60
18002;DHT22;9126;48.160;17.130;2022-11-04T04:03:37;12.00;95.60
18002;DHT22;9126;48.160;17.130;2022-11-04T04:06:09;12.00;95.70
18002;DHT22;9126;48.160;17.130;2022-11-04T04:08:41;12.00;95.70
18002;DHT22;9126;48.160;17.130;2022-11-04T04:11:15;11.90;95.90
18002;DHT22;9126;48.160;17.130;2022-11-04T04:13:47;12.00;96.00
18002;DHT22;9126;48.160;17.130;2022-11-04T04:16:18;12.00;96.10
18002;DHT22;9126;48.160;17.130;2022-11-04T04:18:48;12.10;95.80
18002;DHT22;9126;48.160;17.130;2022-11-04T04:21:23;12.00;95.90
18002;DHT22;9126;48.160;17.130;2022-11-04T04:23:54;12.10;95.80
18002;DHT22;9126;48.160;17.130;2022-11-04T04:26:41;12.00;95.80
18002;DHT22;9126;48.160;17.130;2022-11-04T04:29:29;11.90;96.20
18002;DHT22;9126;48.160;17.130;2022-11-04T04:31:56;12.00;96.00
18002;DHT22;9126;48.160;17.130;2022-11-04T04:34:27;12.00;95.90
18002;DHT22;9126;48.160;17.130;2022-11-04T04:37:00;12.00;95.80
18002;DHT22;9126;48.160;17.130;2022-11-04T04:39:34;12.00;95.70
18002;DHT22;9126;48.160;17.130;2022-11-04T04:42:20;12.00;95.80
18002;DHT22;9126;48.160;17.130;2022-11-04T04:45:05;11.90;95.70
18002;DHT22;9126;48.160;17.130;2022-11-04T04:47:37;11.90;96.00
18002;DHT22;9126;48.160;17.130;2022-11-04T04:50:06;12.00;96.00
18002;DHT22;9126;48.160;17.130;2022-11-04T04:52:37;12.00;95.70
18002;DHT22;9126;48.160;17.130;2022-11-04T04:55:06;11.90;95.70
18002;DHT22;9126;48.160;17.130;2022-11-04T04:57:34;11.80;95.60
18002;DHT22;9126;48.160;17.130;2022-11-04T05:00:01;11.80;96.10
18002;DHT22;9126;48.160;17.130;2022-11-04T05:02:28;11.80;96.20
18002;DHT22;9126;48.160;17.130;2022-11-04T05:04:55;11.80;96.00
18002;DHT22;9126;48.160;17.130;2022-11-04T05:07:23;11.80;96.20
18002;DHT22;9126;48.160;17.130;2022-11-04T05:09:52;11.80;96.20
18002;DHT22;9126;48.160;17.130;2022-11-04T05:12:19;11.80;96.30
18002;DHT22;9126;48.160;17.130;2022-11-04T05:14:46;11.80;96.30
18002;DHT22;9126;48.160;17.130;2022-11-04T05:17:13;11.80;96.40
18002;DHT22;9126;48.160;17.130;2022-11-04T05:19:42;11.80;96.30
18002;DHT22;9126;48.160;17.130;2022-11-04T05:22:10;11.70;96.30
18002;DHT22;9126;48.160;17.130;2022-11-04T05:24:37;11.80;96.50
18002;DHT22;9126;48.160;17.130;2022-11-04T05:27:05;11.80;96.50
18002;DHT22;9126;48.160;17.130;2022-11-04T05:29:32;12.00;96.40
18002;DHT22;9126;48.160;17.130;2022-11-04T05:31:59;12.00;96.20
18002;DHT22;9126;48.160;17.130;2022-11-04T05:34:26;12.00;96.20
18002;DHT22;9126;48.160;17.130;2022-11-04T05:36:53;12.10;96.10
18002;DHT22;9126;48.160;17.130;2022-11-04T05:39:20;12.10;95.90
18002;DHT22;9126;48.160;17.130;2022-11-04T05:41:46;12.20;95.90
18002;DHT22;9126;48.160;17.130;2022-11-04T05:44:15;12.10;95.60
18002;DHT22;9126;48.160;17.130;2022-11-04T05:46:42;12.00;95.70
18002;DHT22;9126;48.160;17.130;2022-11-04T05:49:09;12.00;95.60
18002;DHT22;9126;48.160;17.130;2022-11-04T05:51:36;12.00;95.80
18002;DHT22;9126;48.160;17.130;2022-11-04T05:54:03;12.00;95.60
18002;DHT22;9126;48.160;17.130;2022-11-04T05:56:30;11.90;95.90
18002;DHT22;9126;48.160;17.130;2022-11-04T05:58:57;11.90;96.00
18002;DHT22;9126;48.160;17.130;2022-11-04T06:01:33;11.90;95.80
18002;DHT22;9126;48.160;17.130;2022-11-04T06:04:05;11.90;95.80
18002;DHT22;9126;48.160;17.130;2022-11-04T06:06:34;11.80;96.00
18002;DHT22;9126;48.160;17.130;2022-11-04T06:09:02;11.90;96.10
18002;DHT22;9126;48.160;17.130;2022-11-04T06:11:29;12.00;96.10
18002;DHT22;9126;48.160;17.130;2022-11-04T06:13:57;12.10;95.90
18002;DHT22;9126;48.160;17.130;2022-11-04T06:16:24;12.00;95.70
18002;DHT22;9126;48.160;17.130;2022-11-04T06:18:53;12.00;95.90
18002;DHT22;9126;48.160;17.130;2022-11-04T06:21:26;12.00;96.00
18002;DHT22;9126;48.160;17.130;2022-11-04T06:23:54;12.10;96.00
18002;DHT22;9126;48.160;17.130;2022-11-04T06:26:23;12.00;95.60
18002;DHT22;9126;48.160;17.130;2022-11-04T06:28:50;11.90;95.80
18002;DHT22;9126;48.160;17.130;2022-11-04T06:31:18;11.80;96.10
18002;DHT22;9126;48.160;17.130;2022-11-04T06:33:45;11.90;96.30
18002;DHT22;9126;48.160;17.130;2022-11-04T06:36:14;12.00;96.10
18002;DHT22;9126;48.160;17.130;2022-11-04T06:38:41;12.00;96.00
18002;DHT22;9126;48.160;17.130;2022-11-04T06:41:11;12.00;96.10
18002;DHT22;9126;48.160;17.130;2022-11-04T06:43:39;12.10;96.00
18002;DHT22;9126;48.160;17.130;2022-11-04T06:46:23;12.10;95.90
18002;DHT22;9126;48.160;17.130;2022-11-04T06:48:50;12.10;95.90
18002;DHT22;9126;48.160;17.130;2022-11-04T06:51:18;12.20;95.90
18002;DHT22;9126;48.160;17.130;2022-11-04T06:53:45;12.30;95.70
18002;DHT22;9126;48.160;17.130;2022-11-04T06:56:12;12.40;95.50
18002;DHT22;9126;48.160;17.130;2022-11-04T06:58:39;12.20;95.30
18002;DHT22;9126;48.160;17.130;2022-11-04T07:01:06;12.20;95.40
18002;DHT22;9126;48.160;17.130;2022-11-04T07:03:33;12.20;95.50
18002;DHT22;9126;48.160;17.130;2022-11-04T07:06:05;12.30;95.40
18002;DHT22;9126;48.160;17.130;2022-11-04T07:08:34;12.30;95.50
18002;DHT22;9126;48.160;17.130;2022-11-04T07:11:02;12.30;95.20
18002;DHT22;9126;48.160;17.130;2022-11-04T07:13:29;12.40;95.30
18002;DHT22;9126;48.160;17.130;2022-11-04T07:15:56;12.50;95.20
18002;DHT22;9126;48.160;17.130;2022-11-04T07:18:23;12.50;95.10
18002;DHT22;9126;48.160;17.130;2022-11-04T07:20:50;12.60;95.00
18002;DHT22;9126;48.160;17.130;2022-11-04T07:23:17;12.60;94.80
18002;DHT22;9126;48.160;17.130;2022-11-04T07:25:46;12.60;94.40
18002;DHT22;9126;48.160;17.130;2022-11-04T07:28:12;12.40;94.70
18002;DHT22;9126;48.160;17.130;2022-11-04T07:30:39;12.30;94.70
18002;DHT22;9126;48.160;17.130;2022-11-04T07:33:07;12.30;94.90
18002;DHT22;9126;48.160;17.130;2022-11-04T07:35:35;12.40;95.00
18002;DHT22;9126;48.160;17.130;2022-11-04T07:38:02;12.40;94.80
18002;DHT22;9126;48.160;17.130;2022-11-04T07:40:29;12.40;95.00
18002;DHT22;9126;48.160;17.130;2022-11-04T07:43:00;12.40;94.90
18002;DHT22;9126;48.160;17.130;2022-11-04T07:45:27;12.40;95.00
18002;DHT22;9126;48.160;17.130;2022-11-04T07:47:54;12.50;94.90
18002;DHT22;9126;48.160;17.130;2022-11-04T07:50:21;12.50;94.90
18002;DHT22;9126;48.160;17.130;2022-11-04T07:52:48;12.60;94.70
18002;DHT22;9126;48.160;17.130;2022-11-04T07:55:17;12.70;94.60
18002;DHT22;9126;48.160;17.130;2022-11-04T07:57:44;12.70;94.50
18002;DHT22;9126;48.160;17.130;2022-11-04T08:00:14;12.80;94.40
18002;DHT22;9126;48.160;17.130;2022-11-04T08:02:42;12.70;94.30
18002;DHT22;9126;48.160;17.130;2022-11-04T08:05:11;12.70;94.30
18002;DHT22;9126;48.160;17.130;2022-11-04T08:07:39;12.70;94.40
18002;DHT22;9126;48.160;17.130;2022-11-04T08:10:07;12.70;94.40
18002;DHT22;9126;48.160;17.130;2022-11-04T08:12:34;12.80;94.40
18002;DHT22;9126;48.160;17.130;2022-11-04T08:15:03;12.80;94.30
18002;DHT22;9126;48.160;17.130;2022-11-04T08:17:32;12.90;94.20
18002;DHT22;9126;48.160;17.130;2022-11-04T08:20:01;12.90;94.00
18002;DHT22;9126;48.160;17.130;2022-11-04T08:22:30;12.80;93.90
18002;DHT22;9126;48.160;17.130;2022-11-04T08:24:57;12.80;94.00
18002;DHT22;9126;48.160;17.130;2022-11-04T08:27:24;12.90;94.10
18002;DHT22;9126;48.160;17.130;2022-11-04T08:29:51;13.00;94.00
18002;DHT22;9126;48.160;17.130;2022-11-04T08:32:18;13.00;93.90
18002;DHT22;9126;48.160;17.130;2022-11-04T08:34:46;13.10;93.80
18002;DHT22;9126;48.160;17.130;2022-11-04T08:37:13;13.20;93.70
18002;DHT22;9126;48.160;17.130;2022-11-04T08:39:40;13.20;93.60
18002;DHT22;9126;48.160;17.130;2022-11-04T08:42:08;13.20;93.40
18002;DHT22;9126;48.160;17.130;2022-11-04T08:44:35;13.10;93.30
18002;DHT22;9126;48.160;17.130;2022-11-04T08:47:04;13.00;93.50
18002;DHT22;9126;48.160;17.130;2022-11-04T08:49:31;13.00;93.80
18002;DHT22;9126;48.160;17.130;2022-11-04T08:52:04;13.00;93.90
18002;DHT22;9126;48.160;17.130;2022-11-04T08:54:31;13.00;93.90
18002;DHT22;9126;48.160;17.130;2022-11-04T08:56:58;13.00;94.10
18002;DHT22;9126;48.160;17.130;2022-11-04T08:59:25;13.00;94.30
18002;DHT22;9126;48.160;17.130;2022-11-04T09:01:52;13.10;94.30
18002;DHT22;9126;48.160;17.130;2022-11-04T09:04:19;13.10;94.30
18002;DHT22;9126;48.160;17.130;2022-11-04T09:06:47;13.10;94.30
18002;DHT22;9126;48.160;17.130;2022-11-04T09:09:17;13.10;94.60
18002;DHT22;9126;48.160;17.130;2022-11-04T09:11:45;13.10;94.60
18002;DHT22;9126;48.160;17.130;2022-11-04T09:14:12;12.90;94.70
18002;DHT22;9126;48.160;17.130;2022-11-04T09:16:40;12.90;95.20
18002;DHT22;9126;48.160;17.130;2022-11-04T09:19:07;12.90;95.50
18002;DHT22;9126;48.160;17.130;2022-11-04T09:21:34;13.00;95.50
18002;DHT22;9126;48.160;17.130;2022-11-04T09:24:01;13.00;95.50
18002;DHT22;9126;48.160;17.130;2022-11-04T09:26:30;13.00;95.80
18002;DHT22;9126;48.160;17.130;2022-11-04T09:28:58;13.00;95.80
18002;DHT22;9126;48.160;17.130;2022-11-04T09:31:26;12.90;95.90
18002;DHT22;9126;48.160;17.130;2022-11-04T09:33:54;13.00;96.10
18002;DHT22;9126;48.160;17.130;2022-11-04T09:36:21;13.10;96.20
18002;DHT22;9126;48.160;17.130;2022-11-04T09:38:48;13.10;96.20
18002;DHT22;9126;48.160;17.130;2022-11-04T09:41:32;13.20;96.30
18002;DHT22;9126;48.160;17.130;2022-11-04T09:44:11;13.30;96.30
18002;DHT22;9126;48.160;17.130;2022-11-04T09:46:44;13.30;96.30
18002;DHT22;9126;48.160;17.130;2022-11-04T09:49:14;13.30;96.30
18002;DHT22;9126;48.160;17.130;2022-11-04T09:51:42;13.30;95.80
18002;DHT22;9126;48.160;17.130;2022-11-04T09:54:15;13.10;95.90
18002;DHT22;9126;48.160;17.130;2022-11-04T09:56:48;13.10;96.10
18002;DHT22;9126;48.160;17.130;2022-11-04T09:59:20;12.90;96.10
18002;DHT22;9126;48.160;17.130;2022-11-04T10:01:55;12.90;96.30
18002;DHT22;9126;48.160;17.130;2022-11-04T10:04:32;13.00;96.40
18002;DHT22;9126;48.160;17.130;2022-11-04T10:07:12;13.00;96.40
18002;DHT22;9126;48.160;17.130;2022-11-04T10:09:55;13.10;96.40
18002;DHT22;9126;48.160;17.130;2022-11-04T10:15:37;13.10;96.50
18002;DHT22;9126;48.160;17.130;2022-11-04T10:18:23;13.10;96.60
18002;DHT22;9126;48.160;17.130;2022-11-04T10:20:59;13.10;96.70
18002;DHT22;9126;48.160;17.130;2022-11-04T10:23:32;13.10;96.60
18002;DHT22;9126;48.160;17.130;2022-11-04T10:26:04;13.00;96.70
18002;DHT22;9126;48.160;17.130;2022-11-04T10:28:40;13.10;97.00
18002;DHT22;9126;48.160;17.130;2022-11-04T10:31:10;13.10;96.90
18002;DHT22;9126;48.160;17.130;2022-11-04T10:33:41;13.10;97.00
18002;DHT22;9126;48.160;17.130;2022-11-04T10:36:10;13.10;97.10
18002;DHT22;9126;48.160;17.130;2022-11-04T10:38:39;13.10;97.20
18002;DHT22;9126;48.160;17.130;2022-11-04T10:41:31;13.00;97.30
18002;DHT22;9126;48.160;17.130;2022-11-04T10:44:03;13.10;97.40
18002;DHT22;9126;48.160;17.130;2022-11-04T10:46:44;13.00;97.40
18002;DHT22;9126;48.160;17.130;2022-11-04T10:52:21;13.00;97.60
18002;DHT22;9126;48.160;17.130;2022-11-04T10:54:48;13.00;97.90
18002;DHT22;9126;48.160;17.130;2022-11-04T10:57:17;13.10;97.90
18002;DHT22;9126;48.160;17.130;2022-11-04T10:59:55;12.90;97.50
18002;DHT22;9126;48.160;17.130;2022-11-04T11:02:44;12.70;98.00
18002;DHT22;9126;48.160;17.130;2022-11-04T11:05:19;12.80;98.30
18002;DHT22;9126;48.160;17.130;2022-11-04T11:07:49;12.80;98.40
18002;DHT22;9126;48.160;17.130;2022-11-04T11:10:19;12.80;98.40
18002;DHT22;9126;48.160;17.130;2022-11-04T11:12:51;12.80;98.30
18002;DHT22;9126;48.160;17.130;2022-11-04T11:15:28;12.70;98.60
18002;DHT22;9126;48.160;17.130;2022-11-04T11:18:05;12.70;98.70
18002;DHT22;9126;48.160;17.130;2022-11-04T11:20:37;12.60;98.70
18002;DHT22;9126;48.160;17.130;2022-11-04T11:23:34;12.60;99.20
18002;DHT22;9126;48.160;17.130;2022-11-04T11:26:02;12.60;99.30
18002;DHT22;9126;48.160;17.130;2022-11-04T11:28:30;12.70;99.30
18002;DHT22;9126;48.160;17.130;2022-11-04T11:31:04;12.70;99.30
18002;DHT22;9126;48.160;17.130;2022-11-04T11:33:39;12.60;99.60
18002;DHT22;9126;48.160;17.130;2022-11-04T11:36:13;12.70;99.90
18002;DHT22;9126;48.160;17.130;2022-11-04T11:38:54;12.70;99.60
18002;DHT22;9126;48.160;17.130;2022-11-04T11:41:23;12.80;99.80
18002;DHT22;9126;48.160;17.130;2022-11-04T11:43:57;12.90;99.70
18002;DHT22;9126;48.160;17.130;2022-11-04T11:46:27;12.90;99.50
18002;DHT22;9126;48.160;17.130;2022-11-04T11:48:56;12.80;99.60
18002;DHT22;9126;48.160;17.130;2022-11-04T11:51:27;12.80;99.50
18002;DHT22;9126;48.160;17.130;2022-11-04T11:54:12;12.80;99.60
18002;DHT22;9126;48.160;17.130;2022-11-04T11:56:41;12.90;99.60
18002;DHT22;9126;48.160;17.130;2022-11-04T11:59:16;12.90;99.50
18002;DHT22;9126;48.160;17.130;2022-11-04T12:01:46;12.80;99.40
18002;DHT22;9126;48.160;17.130;2022-11-04T12:04:16;12.80;99.60
18002;DHT22;9126;48.160;17.130;2022-11-04T12:06:54;12.80;99.80
18002;DHT22;9126;48.160;17.130;2022-11-04T12:09:34;12.70;99.80
18002;DHT22;9126;48.160;17.130;2022-11-04T12:15:15;12.70;99.90
18002;DHT22;9126;48.160;17.130;2022-11-04T12:17:59;12.60;99.90
18002;DHT22;9126;48.160;17.130;2022-11-04T12:20:40;12.60;99.90
18002;DHT22;9126;48.160;17.130;2022-11-04T12:23:16;12.60;99.90
18002;DHT22;9126;48.160;17.130;2022-11-04T12:25:58;12.60;99.90
18002;DHT22;9126;48.160;17.130;2022-11-04T12:28:34;12.60;99.90
18002;DHT22;9126;48.160;17.130;2022-11-04T12:31:11;12.60;99.90
18002;DHT22;9126;48.160;17.130;2022-11-04T12:33:48;12.70;99.90
18002;DHT22;9126;48.160;17.130;2022-11-04T12:36:29;12.70;99.90
18002;DHT22;9126;48.160;17.130;2022-11-04T12:39:16;12.80;99.90
18002;DHT22;9126;48.160;17.130;2022-11-04T12:41:53;12.70;99.90
18002;DHT22;9126;48.160;17.130;2022-11-04T12:44:28;12.60;99.90
18002;DHT22;9126;48.160;17.130;2022-11-04T12:47:04;12.70;99.90
18002;DHT22;9126;48.160;17.130;2022-11-04T12:49:46;12.60;99.90
18002;DHT22;9126;48.160;17.130;2022-11-04T12:52:30;12.70;99.90
18002;DHT22;9126;48.160;17.130;2022-11-04T12:55:15;12.70;99.90
18002;DHT22;9126;48.160;17.130;2022-11-04T12:57:52;12.70;99.90
18002;DHT22;9126;48.160;17.130;2022-11-04T13:00:21;12.90;99.90
18002;DHT22;9126;48.160;17.130;2022-11-04T13:02:55;12.90;99.90
18002;DHT22;9126;48.160;17.130;2022-11-04T13:05:35;12.90;99.90
18002;DHT22;9126;48.160;17.130;2022-11-04T13:08:10;12.90;99.90
18002;DHT22;9126;48.160;17.130;2022-11-04T13:10:42;12.90;99.90
18002;DHT22;9126;48.160;17.130;2022-11-04T13:13:15;12.90;99.90
18002;DHT22;9126;48.160;17.130;2022-11-04T13:15:47;12.90;99.90
18002;DHT22;9126;48.160;17.130;2022-11-04T13:18:17;12.90;99.90
18002;DHT22;9126;48.160;17.130;2022-11-04T13:20:49;12.80;99.90
18002;DHT22;9126;48.160;17.130;2022-11-04T13:23:23;12.70;99.90
18002;DHT22;9126;48.160;17.130;2022-11-04T13:25:52;12.70;99.90
18002;DHT22;9126;48.160;17.130;2022-11-04T13:28:22;12.80;99.90
18002;DHT22;9126;48.160;17.130;2022-11-04T13:30:53;12.70;99.90
18002;DHT22;9126;48.160;17.130;2022-11-04T13:33:31;12.60;99.90
18002;DHT22;9126;48.160;17.130;2022-11-04T13:36:03;12.50;99.90
18002;DHT22;9126;48.160;17.130;2022-11-04T13:38:37;12.50;99.90
18002;DHT22;9126;48.160;17.130;2022-11-04T13:41:23;12.50;99.90
18002;DHT22;9126;48.160;17.130;2022-11-04T13:43:56;12.40;99.90
18002;DHT22;9126;48.160;17.130;2022-11-04T13:46:26;12.40;99.90
18002;DHT22;9126;48.160;17.130;2022-11-04T13:49:00;12.40;99.90
18002;DHT22;9126;48.160;17.130;2022-11-04T13:51:39;12.40;99.90
18002;DHT22;9126;48.160;17.130;2022-11-04T13:54:22;12.60;99.90
18002;DHT22;9126;48.160;17.130;2022-11-04T13:57:02;12.70;99.90
18002;DHT22;9126;48.160;17.130;2022-11-04T13:59:32;12.70;99.90
18002;DHT22;9126;48.160;17.130;2022-11-04T14:02:22;12.70;99.90
18002;DHT22;9126;48.160;17.130;2022-11-04T14:04:49;12.60;99.90
18002;DHT22;9126;48.160;17.130;2022-11-04T14:07:16;12.80;99.90
18002;DHT22;9126;48.160;17.130;2022-11-04T14:09:52;12.90;99.90
18002;DHT22;9126;48.160;17.130;2022-11-04T14:12:31;13.00;99.90
18002;DHT22;9126;48.160;17.130;2022-11-04T14:15:10;13.10;99.90
18002;DHT22;9126;48.160;17.130;2022-11-04T14:18:00;13.10;99.90
18002;DHT22;9126;48.160;17.130;2022-11-04T14:20:32;13.10;99.90
18002;DHT22;9126;48.160;17.130;2022-11-04T14:23:00;12.90;99.90
18002;DHT22;9126;48.160;17.130;2022-11-04T14:25:33;13.00;99.90
18002;DHT22;9126;48.160;17.130;2022-11-04T14:28:15;13.00;99.90
18002;DHT22;9126;48.160;17.130;2022-11-04T14:30:48;13.10;99.90
18002;DHT22;9126;48.160;17.130;2022-11-04T14:33:31;13.10;99.90
18002;DHT22;9126;48.160;17.130;2022-11-04T14:39:21;13.10;99.90
18002;DHT22;9126;48.160;17.130;2022-11-04T14:41:53;12.90;99.90
18002;DHT22;9126;48.160;17.130;2022-11-04T14:44:27;12.90;99.90
18002;DHT22;9126;48.160;17.130;2022-11-04T14:46:58;12.90;99.90
18002;DHT22;9126;48.160;17.130;2022-11-04T14:49:36;13.00;99.90
18002;DHT22;9126;48.160;17.130;2022-11-04T14:52:08;13.00;99.90
18002;DHT22;9126;48.160;17.130;2022-11-04T14:54:40;13.00;99.90
18002;DHT22;9126;48.160;17.130;2022-11-04T14:57:12;13.10;99.90
18002;DHT22;9126;48.160;17.130;2022-11-04T14:59:41;13.00;99.90
18002;DHT22;9126;48.160;17.130;2022-11-04T15:02:16;13.00;99.90
18002;DHT22;9126;48.160;17.130;2022-11-04T15:04:49;12.90;99.90
18002;DHT22;9126;48.160;17.130;2022-11-04T15:07:31;13.00;99.90
18002;DHT22;9126;48.160;17.130;2022-11-04T15:09:58;13.00;99.90
18002;DHT22;9126;48.160;17.130;2022-11-04T15:12:26;13.00;99.90
18002;DHT22;9126;48.160;17.130;2022-11-04T15:15:33;13.10;99.90
18002;DHT22;9126;48.160;17.130;2022-11-04T15:18:05;13.10;99.90
18002;DHT22;9126;48.160;17.130;2022-11-04T15:20:37;13.10;99.90
18002;DHT22;9126;48.160;17.130;2022-11-04T15:23:10;13.00;99.90
18002;DHT22;9126;48.160;17.130;2022-11-04T15:25:44;13.00;99.90
18002;DHT22;9126;48.160;17.130;2022-11-04T15:28:16;12.90;99.90
18002;DHT22;9126;48.160;17.130;2022-11-04T15:30:56;12.90;99.90
18002;DHT22;9126;48.160;17.130;2022-11-04T15:33:25;12.90;99.90
18002;DHT22;9126;48.160;17.130;2022-11-04T15:35:54;12.80;99.90
18002;DHT22;9126;48.160;17.130;2022-11-04T15:38:25;12.80;99.90
18002;DHT22;9126;48.160;17.130;2022-11-04T15:40:54;12.80;99.90
18002;DHT22;9126;48.160;17.130;2022-11-04T15:43:42;12.80;99.90
18002;DHT22;9126;48.160;17.130;2022-11-04T15:46:16;12.50;99.90
18002;DHT22;9126;48.160;17.130;2022-11-04T15:48:59;12.10;99.90
18002;DHT22;9126;48.160;17.130;2022-11-04T15:51:27;11.70;99.90
18002;DHT22;9126;48.160;17.130;2022-11-04T15:53:58;11.50;99.90
18002;DHT22;9126;48.160;17.130;2022-11-04T15:56:27;11.30;99.90
18002;DHT22;9126;48.160;17.130;2022-11-04T15:58:56;11.20;99.90
18002;DHT22;9126;48.160;17.130;2022-11-04T16:01:23;11.00;99.90
18002;DHT22;9126;48.160;17.130;2022-11-04T16:03:55;11.00;99.90
18002;DHT22;9126;48.160;17.130;2022-11-04T16:06:36;10.90;99.90
18002;DHT22;9126;48.160;17.130;2022-11-04T16:09:14;10.90;99.90
18002;DHT22;9126;48.160;17.130;2022-11-04T16:12:05;10.90;99.90
18002;DHT22;9126;48.160;17.130;2022-11-04T16:14:33;10.90;99.90
18002;DHT22;9126;48.160;17.130;2022-11-04T16:17:00;10.80;99.90
18002;DHT22;9126;48.160;17.130;2022-11-04T16:19:29;10.80;99.80